sensor_id;sensor_type;location;lat;lon;timestamp;pressure;altitude;pressure_sealevel;temperature;humidity
72585;BME280;60618;40.084;32.908;2023-04-06T00:00:25;89047.63;;;6.22;91.53
72585;BME280;60618;40.084;32.908;2023-04-06T00:02:52;89042.88;;;6.26;91.55
72585;BME280;60618;40.084;32.908;2023-04-06T00:05:19;89037.59;;;6.26;91.07
72585;BME280;60618;40.084;32.908;2023-04-06T00:07:46;89037.31;;;6.24;90.86
72585;BME280;60618;40.084;32.908;2023-04-06T00:10:13;89031.13;;;6.13;91.78
72585;BME280;60618;40.084;32.908;2023-04-06T00:12:40;89030.72;;;5.90;92.84
72585;BME280;60618;40.084;32.908;2023-04-06T00:15:07;89028.75;;;5.76;94.32
72585;BME280;60618;40.084;32.908;2023-04-06T00:17:34;89026.91;;;5.67;94.95
72585;BME280;60618;40.084;32.908;2023-04-06T00:20:01;89033.00;;;5.59;96.62
72585;BME280;60618;40.084;32.908;2023-04-06T00:22:28;89027.59;;;5.53;97.30
72585;BME280;60618;40.084;32.908;2023-04-06T00:24:54;89035.78;;;5.55;98.20
72585;BME280;60618;40.084;32.908;2023-04-06T00:27:21;89033.44;;;5.57;98.43
72585;BME280;60618;40.084;32.908;2023-04-06T00:29:48;89031.81;;;5.60;97.59
72585;BME280;60618;40.084;32.908;2023-04-06T00:32:15;89030.63;;;5.61;98.23
72585;BME280;60618;40.084;32.908;2023-04-06T00:34:42;89032.19;;;5.67;97.75
72585;BME280;60618;40.084;32.908;2023-04-06T00:37:11;89023.19;;;5.74;97.38
72585;BME280;60618;40.084;32.908;2023-04-06T00:39:38;89016.00;;;5.89;97.04
72585;BME280;60618;40.084;32.908;2023-04-06T00:42:11;89017.19;;;5.88;96.62
72585;BME280;60618;40.084;32.908;2023-04-06T00:44:39;89014.09;;;5.75;97.09
72585;BME280;60618;40.084;32.908;2023-04-06T00:47:07;89021.00;;;5.73;97.51
72585;BME280;60618;40.084;32.908;2023-04-06T00:49:34;89026.00;;;5.70;98.35
72585;BME280;60618;40.084;32.908;2023-04-06T00:52:01;89022.56;;;5.79;97.81
72585;BME280;60618;40.084;32.908;2023-04-06T00:54:29;89021.91;;;5.93;97.18
72585;BME280;60618;40.084;32.908;2023-04-06T00:56:56;89033.03;;;6.12;95.83
72585;BME280;60618;40.084;32.908;2023-04-06T00:59:23;89033.56;;;6.16;94.04
72585;BME280;60618;40.084;32.908;2023-04-06T01:01:50;89042.72;;;6.30;92.88
72585;BME280;60618;40.084;32.908;2023-04-06T01:04:18;89028.84;;;6.20;91.48
72585;BME280;60618;40.084;32.908;2023-04-06T01:06:44;89022.03;;;5.90;93.04
72585;BME280;60618;40.084;32.908;2023-04-06T01:09:11;89029.78;;;5.55;94.61
72585;BME280;60618;40.084;32.908;2023-04-06T01:11:38;89023.50;;;5.52;95.73
72585;BME280;60618;40.084;32.908;2023-04-06T01:14:05;89022.56;;;5.40;96.63
72585;BME280;60618;40.084;32.908;2023-04-06T01:16:33;89012.59;;;5.59;96.65
72585;BME280;60618;40.084;32.908;2023-04-06T01:19:00;89018.59;;;5.60;95.08
72585;BME280;60618;40.084;32.908;2023-04-06T01:21:27;89019.41;;;5.66;95.05
72585;BME280;60618;40.084;32.908;2023-04-06T01:23:54;89017.91;;;5.74;94.08
72585;BME280;60618;40.084;32.908;2023-04-06T01:26:21;89023.41;;;5.85;93.80
72585;BME280;60618;40.084;32.908;2023-04-06T01:28:48;89021.25;;;5.75;92.26
72585;BME280;60618;40.084;32.908;2023-04-06T01:31:15;89019.50;;;5.57;92.16
72585;BME280;60618;40.084;32.908;2023-04-06T01:33:42;89015.06;;;5.63;93.44
72585;BME280;60618;40.084;32.908;2023-04-06T01:36:09;89019.81;;;5.74;92.78
72585;BME280;60618;40.084;32.908;2023-04-06T01:38:35;89016.09;;;5.80;91.97
72585;BME280;60618;40.084;32.908;2023-04-06T01:41:03;89016.59;;;5.93;91.85
72585;BME280;60618;40.084;32.908;2023-04-06T01:43:29;89008.38;;;5.91;90.57
72585;BME280;60618;40.084;32.908;2023-04-06T01:45:57;89007.19;;;5.92;90.83
72585;BME280;60618;40.084;32.908;2023-04-06T01:48:23;89008.94;;;5.95;90.92
72585;BME280;60618;40.084;32.908;2023-04-06T01:50:50;89014.09;;;5.90;91.07
72585;BME280;60618;40.084;32.908;2023-04-06T01:53:17;89001.53;;;5.85;92.09
72585;BME280;60618;40.084;32.908;2023-04-06T01:55:44;89005.91;;;5.88;91.79
72585;BME280;60618;40.084;32.908;2023-04-06T01:58:12;89009.97;;;5.74;91.53
72585;BME280;60618;40.084;32.908;2023-04-06T02:00:39;89002.41;;;5.82;92.25
72585;BME280;60618;40.084;32.908;2023-04-06T02:03:06;89006.94;;;5.90;92.44
72585;BME280;60618;40.084;32.908;2023-04-06T02:05:34;89012.78;;;5.94;92.01
72585;BME280;60618;40.084;32.908;2023-04-06T02:08:01;89010.84;;;6.10;91.26
72585;BME280;60618;40.084;32.908;2023-04-06T02:10:27;89010.13;;;6.09;90.84
72585;BME280;60618;40.084;32.908;2023-04-06T02:12:54;89010.72;;;5.89;90.79
72585;BME280;60618;40.084;32.908;2023-04-06T02:15:21;89006.63;;;5.88;91.20
72585;BME280;60618;40.084;32.908;2023-04-06T02:17:48;89014.03;;;5.84;91.43
72585;BME280;60618;40.084;32.908;2023-04-06T02:20:15;89014.91;;;5.81;91.63
72585;BME280;60618;40.084;32.908;2023-04-06T02:22:42;89016.75;;;5.90;91.47
72585;BME280;60618;40.084;32.908;2023-04-06T02:25:09;89017.66;;;5.87;91.35
72585;BME280;60618;40.084;32.908;2023-04-06T02:27:36;89018.94;;;5.91;91.19
72585;BME280;60618;40.084;32.908;2023-04-06T02:30:04;89019.13;;;5.88;91.39
72585;BME280;60618;40.084;32.908;2023-04-06T02:32:31;89024.00;;;5.80;91.23
72585;BME280;60618;40.084;32.908;2023-04-06T02:34:57;89022.03;;;5.75;91.34
72585;BME280;60618;40.084;32.908;2023-04-06T02:37:24;89020.84;;;5.76;91.72
72585;BME280;60618;40.084;32.908;2023-04-06T02:39:51;89023.22;;;5.89;91.44
72585;BME280;60618;40.084;32.908;2023-04-06T02:42:18;89018.00;;;5.80;90.79
72585;BME280;60618;40.084;32.908;2023-04-06T02:44:45;89028.47;;;5.74;91.02
72585;BME280;60618;40.084;32.908;2023-04-06T02:47:12;89027.47;;;5.72;92.67
72585;BME280;60618;40.084;32.908;2023-04-06T02:49:39;89032.34;;;5.64;92.49
72585;BME280;60618;40.084;32.908;2023-04-06T02:52:06;89035.47;;;5.62;93.02
72585;BME280;60618;40.084;32.908;2023-04-06T02:54:33;89031.88;;;5.51;93.39
72585;BME280;60618;40.084;32.908;2023-04-06T02:57:00;89032.50;;;5.46;93.56
72585;BME280;60618;40.084;32.908;2023-04-06T02:59:27;89034.72;;;5.38;94.50
72585;BME280;60618;40.084;32.908;2023-04-06T03:01:54;89019.19;;;5.40;94.55
72585;BME280;60618;40.084;32.908;2023-04-06T03:04:21;89028.13;;;5.43;94.49
72585;BME280;60618;40.084;32.908;2023-04-06T03:06:48;89031.03;;;5.45;93.69
72585;BME280;60618;40.084;32.908;2023-04-06T03:09:15;89023.75;;;5.39;94.49
72585;BME280;60618;40.084;32.908;2023-04-06T03:11:41;89024.03;;;5.41;93.29
72585;BME280;60618;40.084;32.908;2023-04-06T03:14:08;89027.00;;;5.34;93.38
72585;BME280;60618;40.084;32.908;2023-04-06T03:16:35;89020.88;;;5.28;93.07
72585;BME280;60618;40.084;32.908;2023-04-06T03:19:02;89019.69;;;5.29;93.12
72585;BME280;60618;40.084;32.908;2023-04-06T03:21:29;89027.66;;;5.20;93.90
72585;BME280;60618;40.084;32.908;2023-04-06T03:23:56;89024.59;;;5.22;94.06
72585;BME280;60618;40.084;32.908;2023-04-06T03:26:23;89022.16;;;5.09;93.61
72585;BME280;60618;40.084;32.908;2023-04-06T03:28:50;89025.97;;;5.08;93.63
72585;BME280;60618;40.084;32.908;2023-04-06T03:31:16;89041.53;;;5.06;93.53
72585;BME280;60618;40.084;32.908;2023-04-06T03:33:46;89036.81;;;5.10;93.93
72585;BME280;60618;40.084;32.908;2023-04-06T03:36:13;89036.94;;;5.16;93.06
72585;BME280;60618;40.084;32.908;2023-04-06T03:38:40;89038.94;;;5.21;93.20
72585;BME280;60618;40.084;32.908;2023-04-06T03:41:07;89031.47;;;5.19;93.33
72585;BME280;60618;40.084;32.908;2023-04-06T03:43:34;89039.72;;;5.12;92.91
72585;BME280;60618;40.084;32.908;2023-04-06T03:46:01;89048.50;;;5.18;93.17
72585;BME280;60618;40.084;32.908;2023-04-06T03:48:28;89044.97;;;5.21;92.39
72585;BME280;60618;40.084;32.908;2023-04-06T03:50:54;89048.22;;;5.16;91.78
72585;BME280;60618;40.084;32.908;2023-04-06T03:53:21;89056.41;;;5.18;92.17
72585;BME280;60618;40.084;32.908;2023-04-06T03:55:48;89048.94;;;5.17;91.95
72585;BME280;60618;40.084;32.908;2023-04-06T03:58:15;89051.78;;;5.13;91.68
72585;BME280;60618;40.084;32.908;2023-04-06T04:00:42;89057.78;;;5.13;91.66
72585;BME280;60618;40.084;32.908;2023-04-06T04:03:09;89052.03;;;5.15;90.72
72585;BME280;60618;40.084;32.908;2023-04-06T04:05:36;89056.41;;;5.18;90.36
72585;BME280;60618;40.084;32.908;2023-04-06T04:08:03;89064.97;;;5.13;90.22
72585;BME280;60618;40.084;32.908;2023-04-06T04:10:30;89063.97;;;5.01;90.50
72585;BME280;60618;40.084;32.908;2023-04-06T04:12:57;89065.84;;;5.10;89.68
72585;BME280;60618;40.084;32.908;2023-04-06T04:15:23;89075.81;;;5.15;89.36
72585;BME280;60618;40.084;32.908;2023-04-06T04:17:50;89074.22;;;5.08;90.99
72585;BME280;60618;40.084;32.908;2023-04-06T04:20:17;89076.56;;;5.06;91.20
72585;BME280;60618;40.084;32.908;2023-04-06T04:22:44;89078.16;;;5.13;91.95
72585;BME280;60618;40.084;32.908;2023-04-06T04:25:11;89076.66;;;5.21;89.98
72585;BME280;60618;40.084;32.908;2023-04-06T04:27:38;89077.75;;;5.29;89.61
72585;BME280;60618;40.084;32.908;2023-04-06T04:30:06;89084.47;;;5.39;89.09
72585;BME280;60618;40.084;32.908;2023-04-06T04:32:33;89091.63;;;5.39;87.48
72585;BME280;60618;40.084;32.908;2023-04-06T04:35:00;89087.78;;;5.25;87.14
72585;BME280;60618;40.084;32.908;2023-04-06T04:37:26;89092.13;;;5.04;87.54
72585;BME280;60618;40.084;32.908;2023-04-06T04:39:53;89098.88;;;5.05;88.95
72585;BME280;60618;40.084;32.908;2023-04-06T04:42:20;89101.97;;;5.28;88.73
72585;BME280;60618;40.084;32.908;2023-04-06T04:44:47;89109.44;;;5.29;87.34
72585;BME280;60618;40.084;32.908;2023-04-06T04:47:14;89106.53;;;5.27;88.18
72585;BME280;60618;40.084;32.908;2023-04-06T04:49:41;89109.69;;;5.40;87.98
72585;BME280;60618;40.084;32.908;2023-04-06T04:52:07;89101.03;;;5.64;87.63
72585;BME280;60618;40.084;32.908;2023-04-06T04:54:34;89100.09;;;5.76;85.23
72585;BME280;60618;40.084;32.908;2023-04-06T04:57:01;89090.91;;;5.86;84.50
72585;BME280;60618;40.084;32.908;2023-04-06T04:59:28;89088.91;;;6.05;83.97
72585;BME280;60618;40.084;32.908;2023-04-06T05:01:55;89088.97;;;6.11;83.48
72585;BME280;60618;40.084;32.908;2023-04-06T05:04:22;89077.72;;;6.25;83.57
72585;BME280;60618;40.084;32.908;2023-04-06T05:06:49;89083.63;;;6.35;83.14
72585;BME280;60618;40.084;32.908;2023-04-06T05:09:16;89085.28;;;6.47;82.48
72585;BME280;60618;40.084;32.908;2023-04-06T05:11:43;89092.69;;;6.58;82.46
72585;BME280;60618;40.084;32.908;2023-04-06T05:14:09;89090.66;;;6.52;80.83
72585;BME280;60618;40.084;32.908;2023-04-06T05:16:36;89088.69;;;6.47;81.25
72585;BME280;60618;40.084;32.908;2023-04-06T05:19:03;89095.03;;;6.55;81.03
72585;BME280;60618;40.084;32.908;2023-04-06T05:21:30;89091.50;;;6.44;81.36
72585;BME280;60618;40.084;32.908;2023-04-06T05:23:57;89100.16;;;6.44;81.69
72585;BME280;60618;40.084;32.908;2023-04-06T05:26:24;89102.31;;;6.16;82.32
72585;BME280;60618;40.084;32.908;2023-04-06T05:28:51;89093.19;;;6.17;81.86
72585;BME280;60618;40.084;32.908;2023-04-06T05:31:18;89095.41;;;6.34;82.35
72585;BME280;60618;40.084;32.908;2023-04-06T05:33:45;89103.53;;;6.30;81.58
72585;BME280;60618;40.084;32.908;2023-04-06T05:36:12;89103.59;;;6.21;80.91
72585;BME280;60618;40.084;32.908;2023-04-06T05:38:40;89106.97;;;6.36;81.02
72585;BME280;60618;40.084;32.908;2023-04-06T05:41:07;89116.94;;;6.41;80.01
72585;BME280;60618;40.084;32.908;2023-04-06T05:43:34;89120.97;;;6.51;79.85
72585;BME280;60618;40.084;32.908;2023-04-06T05:46:01;89117.03;;;6.62;78.92
72585;BME280;60618;40.084;32.908;2023-04-06T05:48:28;89122.78;;;6.60;77.99
72585;BME280;60618;40.084;32.908;2023-04-06T05:50:55;89126.00;;;6.79;78.42
72585;BME280;60618;40.084;32.908;2023-04-06T05:53:22;89123.31;;;7.08;77.77
72585;BME280;60618;40.084;32.908;2023-04-06T05:55:49;89113.47;;;7.44;77.01
72585;BME280;60618;40.084;32.908;2023-04-06T05:58:16;89115.25;;;7.88;77.35
72585;BME280;60618;40.084;32.908;2023-04-06T06:00:43;89116.44;;;8.07;73.47
72585;BME280;60618;40.084;32.908;2023-04-06T06:03:10;89118.31;;;8.42;74.39
72585;BME280;60618;40.084;32.908;2023-04-06T06:05:37;89121.97;;;8.70;71.81
72585;BME280;60618;40.084;32.908;2023-04-06T06:08:03;89128.69;;;8.92;69.79
72585;BME280;60618;40.084;32.908;2023-04-06T06:10:30;89122.69;;;8.71;67.60
72585;BME280;60618;40.084;32.908;2023-04-06T06:12:57;89113.81;;;8.48;67.39
72585;BME280;60618;40.084;32.908;2023-04-06T06:15:24;89116.72;;;8.50;69.23
72585;BME280;60618;40.084;32.908;2023-04-06T06:17:51;89122.13;;;8.61;69.51
72585;BME280;60618;40.084;32.908;2023-04-06T06:20:18;89130.66;;;8.04;68.98
72585;BME280;60618;40.084;32.908;2023-04-06T06:22:45;89133.72;;;7.62;72.06
72585;BME280;60618;40.084;32.908;2023-04-06T06:25:12;89133.03;;;7.47;72.89
72585;BME280;60618;40.084;32.908;2023-04-06T06:27:39;89132.81;;;7.30;73.60
72585;BME280;60618;40.084;32.908;2023-04-06T06:30:06;89128.75;;;7.49;73.53
72585;BME280;60618;40.084;32.908;2023-04-06T06:32:33;89134.16;;;7.75;72.17
72585;BME280;60618;40.084;32.908;2023-04-06T06:35:00;89129.00;;;7.86;72.30
72585;BME280;60618;40.084;32.908;2023-04-06T06:37:27;89129.00;;;7.86;69.81
72585;BME280;60618;40.084;32.908;2023-04-06T06:39:56;89126.28;;;8.01;71.00
72585;BME280;60618;40.084;32.908;2023-04-06T06:42:23;89127.53;;;8.06;70.60
72585;BME280;60618;40.084;32.908;2023-04-06T06:44:51;89125.13;;;7.87;68.06
72585;BME280;60618;40.084;32.908;2023-04-06T06:47:18;89126.41;;;7.92;67.37
72585;BME280;60618;40.084;32.908;2023-04-06T06:49:45;89117.13;;;8.22;67.28
72585;BME280;60618;40.084;32.908;2023-04-06T06:52:11;89125.63;;;8.47;61.88
72585;BME280;60618;40.084;32.908;2023-04-06T06:54:38;89116.84;;;8.41;62.20
72585;BME280;60618;40.084;32.908;2023-04-06T06:57:05;89119.06;;;8.68;60.49
72585;BME280;60618;40.084;32.908;2023-04-06T06:59:32;89118.16;;;8.51;61.02
72585;BME280;60618;40.084;32.908;2023-04-06T07:01:59;89127.59;;;8.52;61.98
72585;BME280;60618;40.084;32.908;2023-04-06T07:04:26;89135.66;;;8.37;63.62
72585;BME280;60618;40.084;32.908;2023-04-06T07:06:53;89126.53;;;8.44;62.45
72585;BME280;60618;40.084;32.908;2023-04-06T07:09:20;89124.44;;;8.74;58.00
72585;BME280;60618;40.084;32.908;2023-04-06T07:11:47;89118.72;;;9.13;57.79
72585;BME280;60618;40.084;32.908;2023-04-06T07:14:15;89128.16;;;9.45;57.18
72585;BME280;60618;40.084;32.908;2023-04-06T07:16:42;89134.88;;;9.09;54.23
72585;BME280;60618;40.084;32.908;2023-04-06T07:19:09;89136.66;;;8.92;58.02
72585;BME280;60618;40.084;32.908;2023-04-06T07:21:36;89132.56;;;8.65;60.94
72585;BME280;60618;40.084;32.908;2023-04-06T07:24:03;89138.63;;;8.97;61.58
72585;BME280;60618;40.084;32.908;2023-04-06T07:26:30;89141.41;;;9.39;59.95
72585;BME280;60618;40.084;32.908;2023-04-06T07:28:56;89136.34;;;9.10;58.82
72585;BME280;60618;40.084;32.908;2023-04-06T07:31:23;89142.06;;;8.10;60.96
72585;BME280;60618;40.084;32.908;2023-04-06T07:33:50;89138.25;;;8.17;60.78
72585;BME280;60618;40.084;32.908;2023-04-06T07:36:17;89140.47;;;8.39;61.28
72585;BME280;60618;40.084;32.908;2023-04-06T07:38:44;89129.16;;;8.64;57.09
72585;BME280;60618;40.084;32.908;2023-04-06T07:41:11;89127.91;;;8.86;55.49
72585;BME280;60618;40.084;32.908;2023-04-06T07:43:41;89137.31;;;8.61;58.39
72585;BME280;60618;40.084;32.908;2023-04-06T07:46:08;89122.94;;;8.26;60.01
72585;BME280;60618;40.084;32.908;2023-04-06T07:48:35;89127.06;;;8.28;59.95
72585;BME280;60618;40.084;32.908;2023-04-06T07:51:03;89131.25;;;8.55;60.09
72585;BME280;60618;40.084;32.908;2023-04-06T07:53:30;89123.78;;;8.59;59.23
72585;BME280;60618;40.084;32.908;2023-04-06T07:56:00;89137.44;;;8.46;57.26
72585;BME280;60618;40.084;32.908;2023-04-06T07:58:27;89128.38;;;8.58;58.10
72585;BME280;60618;40.084;32.908;2023-04-06T08:00:54;89124.47;;;8.79;58.47
72585;BME280;60618;40.084;32.908;2023-04-06T08:03:20;89129.19;;;8.90;56.85
72585;BME280;60618;40.084;32.908;2023-04-06T08:05:48;89127.56;;;8.72;56.47
72585;BME280;60618;40.084;32.908;2023-04-06T08:08:15;89128.44;;;8.90;61.06
72585;BME280;60618;40.084;32.908;2023-04-06T08:10:41;89125.19;;;8.80;59.50
72585;BME280;60618;40.084;32.908;2023-04-06T08:13:08;89120.34;;;8.52;61.04
72585;BME280;60618;40.084;32.908;2023-04-06T08:15:35;89125.72;;;8.58;58.82
72585;BME280;60618;40.084;32.908;2023-04-06T08:18:02;89128.88;;;8.82;57.25
72585;BME280;60618;40.084;32.908;2023-04-06T08:20:29;89138.28;;;9.09;55.27
72585;BME280;60618;40.084;32.908;2023-04-06T08:22:56;89130.59;;;9.49;55.25
72585;BME280;60618;40.084;32.908;2023-04-06T08:25:23;89132.06;;;9.92;51.87
72585;BME280;60618;40.084;32.908;2023-04-06T08:27:50;89141.22;;;9.49;51.86
72585;BME280;60618;40.084;32.908;2023-04-06T08:30:17;89143.03;;;9.00;51.02
72585;BME280;60618;40.084;32.908;2023-04-06T08:32:47;89144.97;;;8.79;52.75
72585;BME280;60618;40.084;32.908;2023-04-06T08:35:14;89139.22;;;8.55;53.17
72585;BME280;60618;40.084;32.908;2023-04-06T08:37:41;89132.91;;;8.78;54.44
72585;BME280;60618;40.084;32.908;2023-04-06T08:40:08;89141.25;;;9.17;53.80
72585;BME280;60618;40.084;32.908;2023-04-06T08:42:40;89131.78;;;8.85;53.78
72585;BME280;60618;40.084;32.908;2023-04-06T08:45:08;89126.31;;;9.25;53.72
72585;BME280;60618;40.084;32.908;2023-04-06T08:47:36;89129.78;;;8.79;52.24
72585;BME280;60618;40.084;32.908;2023-04-06T08:50:04;89123.88;;;8.90;55.26
72585;BME280;60618;40.084;32.908;2023-04-06T08:52:32;89126.84;;;9.29;52.28
72585;BME280;60618;40.084;32.908;2023-04-06T08:54:59;89127.97;;;9.54;53.77
72585;BME280;60618;40.084;32.908;2023-04-06T08:57:26;89133.53;;;9.19;51.61
72585;BME280;60618;40.084;32.908;2023-04-06T08:59:54;89134.00;;;8.92;52.99
72585;BME280;60618;40.084;32.908;2023-04-06T09:02:21;89126.22;;;9.46;54.67
72585;BME280;60618;40.084;32.908;2023-04-06T09:04:52;89123.75;;;9.79;52.21
72585;BME280;60618;40.084;32.908;2023-04-06T09:07:20;89125.44;;;9.71;48.66
72585;BME280;60618;40.084;32.908;2023-04-06T09:09:47;89126.63;;;10.18;50.56
72585;BME280;60618;40.084;32.908;2023-04-06T09:12:28;89118.34;;;10.05;48.28
72585;BME280;60618;40.084;32.908;2023-04-06T09:14:56;89121.38;;;9.81;49.14
72585;BME280;60618;40.084;32.908;2023-04-06T09:17:25;89116.00;;;9.76;46.82
72585;BME280;60618;40.084;32.908;2023-04-06T09:19:52;89127.84;;;9.75;48.52
72585;BME280;60618;40.084;32.908;2023-04-06T09:22:20;89122.88;;;9.93;49.64
72585;BME280;60618;40.084;32.908;2023-04-06T09:24:52;89127.44;;;9.45;47.94
72585;BME280;60618;40.084;32.908;2023-04-06T09:27:58;89130.81;;;9.45;48.22
72585;BME280;60618;40.084;32.908;2023-04-06T09:30:25;89125.53;;;9.51;48.50
72585;BME280;60618;40.084;32.908;2023-04-06T09:32:54;89138.88;;;9.56;47.33
72585;BME280;60618;40.084;32.908;2023-04-06T09:35:22;89129.75;;;9.31;48.16
72585;BME280;60618;40.084;32.908;2023-04-06T09:37:50;89128.78;;;9.34;48.30
72585;BME280;60618;40.084;32.908;2023-04-06T09:40:19;89134.69;;;9.50;48.68
72585;BME280;60618;40.084;32.908;2023-04-06T09:42:47;89126.22;;;9.14;47.77
72585;BME280;60618;40.084;32.908;2023-04-06T09:45:14;89130.00;;;9.02;48.63
72585;BME280;60618;40.084;32.908;2023-04-06T09:47:43;89120.56;;;9.32;49.71
72585;BME280;60618;40.084;32.908;2023-04-06T09:50:13;89124.66;;;9.65;50.83
72585;BME280;60618;40.084;32.908;2023-04-06T09:55:09;89122.59;;;9.80;48.53
72585;BME280;60618;40.084;32.908;2023-04-06T09:58:05;89127.81;;;9.69;49.92
72585;BME280;60618;40.084;32.908;2023-04-06T10:00:58;89133.53;;;9.56;50.62
72585;BME280;60618;40.084;32.908;2023-04-06T10:03:45;89131.19;;;9.70;49.52
72585;BME280;60618;40.084;32.908;2023-04-06T10:06:14;89128.75;;;10.09;50.36
72585;BME280;60618;40.084;32.908;2023-04-06T10:08:45;89130.09;;;10.25;48.12
72585;BME280;60618;40.084;32.908;2023-04-06T10:11:14;89133.09;;;10.06;48.07
72585;BME280;60618;40.084;32.908;2023-04-06T10:13:42;89129.91;;;9.54;47.36
72585;BME280;60618;40.084;32.908;2023-04-06T10:16:09;89127.56;;;9.67;48.71
72585;BME280;60618;40.084;32.908;2023-04-06T10:18:37;89122.13;;;9.87;47.91
72585;BME280;60618;40.084;32.908;2023-04-06T10:21:11;89125.97;;;9.86;46.70
72585;BME280;60618;40.084;32.908;2023-04-06T10:23:48;89127.59;;;9.35;49.08
72585;BME280;60618;40.084;32.908;2023-04-06T10:26:19;89128.88;;;8.82;49.14
72585;BME280;60618;40.084;32.908;2023-04-06T10:28:48;89129.91;;;8.91;49.45
72585;BME280;60618;40.084;32.908;2023-04-06T10:31:15;89116.81;;;8.87;48.31
72585;BME280;60618;40.084;32.908;2023-04-06T10:33:56;89121.59;;;9.09;47.62
72585;BME280;60618;40.084;32.908;2023-04-06T10:36:31;89122.53;;;9.37;50.86
72585;BME280;60618;40.084;32.908;2023-04-06T10:39:00;89114.88;;;9.14;47.85
72585;BME280;60618;40.084;32.908;2023-04-06T10:41:35;89124.03;;;9.87;51.54
72585;BME280;60618;40.084;32.908;2023-04-06T10:44:02;89116.84;;;9.93;47.18
72585;BME280;60618;40.084;32.908;2023-04-06T10:46:31;89113.06;;;9.68;44.83
72585;BME280;60618;40.084;32.908;2023-04-06T10:49:08;89113.88;;;9.80;50.36
72585;BME280;60618;40.084;32.908;2023-04-06T10:51:37;89110.34;;;10.00;47.93
72585;BME280;60618;40.084;32.908;2023-04-06T10:54:08;89112.00;;;9.97;46.03
72585;BME280;60618;40.084;32.908;2023-04-06T10:56:37;89105.16;;;10.33;46.80
72585;BME280;60618;40.084;32.908;2023-04-06T10:59:05;89093.34;;;10.40;45.30
72585;BME280;60618;40.084;32.908;2023-04-06T11:01:32;89106.28;;;10.15;47.49
72585;BME280;60618;40.084;32.908;2023-04-06T11:03:59;89098.44;;;10.43;46.63
72585;BME280;60618;40.084;32.908;2023-04-06T11:06:30;89096.09;;;10.79;45.28
72585;BME280;60618;40.084;32.908;2023-04-06T11:08:58;89096.22;;;10.31;48.44
72585;BME280;60618;40.084;32.908;2023-04-06T11:11:26;89096.72;;;10.40;45.76
72585;BME280;60618;40.084;32.908;2023-04-06T11:13:56;89091.47;;;10.63;47.17
72585;BME280;60618;40.084;32.908;2023-04-06T11:16:25;89088.88;;;11.07;44.17
72585;BME280;60618;40.084;32.908;2023-04-06T11:18:53;89091.28;;;11.17;43.85
72585;BME280;60618;40.084;32.908;2023-04-06T11:29:12;89093.00;;;9.67;46.39
72585;BME280;60618;40.084;32.908;2023-04-06T11:31:45;89092.09;;;9.38;45.48
72585;BME280;60618;40.084;32.908;2023-04-06T11:34:16;89090.31;;;9.24;46.39
72585;BME280;60618;40.084;32.908;2023-04-06T11:36:44;89085.97;;;9.64;48.08
72585;BME280;60618;40.084;32.908;2023-04-06T11:39:22;89080.72;;;9.75;47.28
72585;BME280;60618;40.084;32.908;2023-04-06T11:41:54;89083.19;;;9.84;44.69
72585;BME280;60618;40.084;32.908;2023-04-06T11:44:43;89082.25;;;9.93;44.52
72585;BME280;60618;40.084;32.908;2023-04-06T11:47:10;89082.00;;;9.96;45.11
72585;BME280;60618;40.084;32.908;2023-04-06T11:49:40;89070.97;;;10.15;43.56
72585;BME280;60618;40.084;32.908;2023-04-06T11:52:22;89077.00;;;10.10;46.09
72585;BME280;60618;40.084;32.908;2023-04-06T11:54:52;89069.06;;;9.67;46.59
72585;BME280;60618;40.084;32.908;2023-04-06T11:57:21;89081.97;;;9.43;46.90
72585;BME280;60618;40.084;32.908;2023-04-06T11:59:48;89074.00;;;9.43;45.70
72585;BME280;60618;40.084;32.908;2023-04-06T12:02:15;89065.69;;;9.66;45.86
72585;BME280;60618;40.084;32.908;2023-04-06T12:04:42;89060.06;;;10.07;47.58
72585;BME280;60618;40.084;32.908;2023-04-06T12:07:08;89061.38;;;10.29;44.90
72585;BME280;60618;40.084;32.908;2023-04-06T12:09:35;89064.63;;;10.72;45.88
72585;BME280;60618;40.084;32.908;2023-04-06T12:12:03;89047.88;;;10.49;42.93
72585;BME280;60618;40.084;32.908;2023-04-06T12:14:30;89046.03;;;10.12;42.46
72585;BME280;60618;40.084;32.908;2023-04-06T12:16:57;89049.53;;;10.41;41.90
72585;BME280;60618;40.084;32.908;2023-04-06T12:19:24;89047.09;;;10.26;43.26
72585;BME280;60618;40.084;32.908;2023-04-06T12:21:52;89053.97;;;9.95;45.29
72585;BME280;60618;40.084;32.908;2023-04-06T12:24:20;89042.38;;;9.45;44.12
72585;BME280;60618;40.084;32.908;2023-04-06T12:26:47;89034.84;;;9.91;44.48
72585;BME280;60618;40.084;32.908;2023-04-06T12:29:19;89045.72;;;10.70;46.54
72585;BME280;60618;40.084;32.908;2023-04-06T12:31:46;89045.75;;;11.26;43.15
72585;BME280;60618;40.084;32.908;2023-04-06T12:34:13;89045.00;;;10.86;41.84
72585;BME280;60618;40.084;32.908;2023-04-06T12:36:40;89038.19;;;10.46;41.99
72585;BME280;60618;40.084;32.908;2023-04-06T12:39:07;89027.81;;;10.87;41.58
72585;BME280;60618;40.084;32.908;2023-04-06T12:41:34;89034.06;;;11.51;40.27
72585;BME280;60618;40.084;32.908;2023-04-06T12:44:00;89029.50;;;10.73;40.83
72585;BME280;60618;40.084;32.908;2023-04-06T12:46:28;89026.94;;;10.14;43.19
72585;BME280;60618;40.084;32.908;2023-04-06T12:48:55;89030.78;;;10.02;43.52
72585;BME280;60618;40.084;32.908;2023-04-06T12:51:22;89036.94;;;10.25;43.69
72585;BME280;60618;40.084;32.908;2023-04-06T12:53:49;89030.00;;;10.72;41.64
72585;BME280;60618;40.084;32.908;2023-04-06T12:56:17;89030.94;;;11.19;41.57
72585;BME280;60618;40.084;32.908;2023-04-06T12:58:45;89029.47;;;11.52;41.51
72585;BME280;60618;40.084;32.908;2023-04-06T13:01:12;89026.75;;;11.57;40.86
72585;BME280;60618;40.084;32.908;2023-04-06T13:03:40;89021.50;;;10.57;40.28
72585;BME280;60618;40.084;32.908;2023-04-06T13:06:08;89020.28;;;10.46;42.06
72585;BME280;60618;40.084;32.908;2023-04-06T13:08:36;89015.94;;;10.55;41.79
72585;BME280;60618;40.084;32.908;2023-04-06T13:11:03;89017.38;;;11.12;41.71
72585;BME280;60618;40.084;32.908;2023-04-06T13:13:31;89013.88;;;11.78;40.88